Time;durP1;ratioP1;P1;durP2;ratioP2;P2;SDS_P1;SDS_P2;PMS_P1;PMS_P2;Temp;Humidity;BMP_temperature;BMP_pressure;BME280_temperature;BME280_humidity;BME280_pressure;Samples;Min_cycle;Max_cycle;Signal;HPM_P1;HPM_P2
2023/01/12 00:01:21;;;;;;;8.20;8.00;;;7.50;99.90;;;;;;6239795;22;20205;-89
2023/01/12 00:04:23;;;;;;;8.00;7.80;;;7.50;99.90;;;;;;6258498;22;20259;-91
2023/01/12 00:10:59;;;;;;;8.20;8.00;;;7.50;99.90;;;;;;6140972;23;20197;-88
2023/01/12 00:30:37;;;;;;;7.80;7.60;;;7.50;99.90;;;;;;5897806;23;20205;-89
2023/01/12 00:33:18;;;;;;;7.90;7.70;;;7.60;99.90;;;;;;6172869;22;20208;-89
2023/01/12 00:35:57;;;;;;;7.93;7.73;;;7.60;99.90;;;;;;6260364;22;20233;-89
2023/01/12 00:51:00;;;;;;;7.70;7.50;;;7.50;99.90;;;;;;6278869;22;20174;-89
2023/01/12 00:57:12;;;;;;;7.47;7.27;;;7.40;99.90;;;;;;6266479;22;20198;-89
2023/01/12 01:00:35;;;;;;;7.77;7.57;;;7.50;99.90;;;;;;6270349;22;20208;-89
2023/01/12 01:03:47;;;;;;;7.57;7.37;;;7.50;99.90;;;;;;6282327;22;20182;-90
2023/01/12 01:06:59;;;;;;;7.73;7.53;;;7.50;99.90;;;;;;6273746;22;20266;-89
2023/01/12 01:13:48;;;;;;;7.80;7.60;;;7.60;99.90;;;;;;6257051;22;20219;-90
2023/01/12 01:17:16;;;;;;;7.70;7.50;;;7.60;99.90;;;;;;6256402;22;20240;-89
2023/01/12 01:20:50;;;;;;;7.80;7.60;;;7.60;99.90;;;;;;6256634;22;20248;-89
2023/01/12 01:24:26;;;;;;;7.90;7.70;;;7.60;99.90;;;;;;6256349;22;20217;-89
2023/01/12 01:27:02;;;;;;;7.90;7.70;;;7.60;99.90;;;;;;6256500;22;20237;-89
2023/01/12 01:32:57;;;;;;;7.70;7.50;;;7.50;99.90;;;;;;6255144;22;20217;-89
2023/01/12 01:35:33;;;;;;;7.83;7.63;;;7.50;99.90;;;;;;6256428;22;20198;-89
2023/01/12 01:41:18;;;;;;;7.83;7.63;;;7.50;99.90;;;;;;6255807;22;20206;-89
2023/01/12 01:44:05;;;;;;;7.90;7.70;;;7.40;99.90;;;;;;6256335;22;20196;-89
2023/01/12 01:49:56;;;;;;;7.90;7.70;;;7.30;99.90;;;;;;6255257;22;20205;-89
2023/01/12 01:52:53;;;;;;;7.60;7.40;;;7.30;99.90;;;;;;6255783;22;20201;-89
2023/01/12 01:55:34;;;;;;;7.70;7.50;;;7.30;99.90;;;;;;6256051;22;20209;-89
2023/01/12 01:58:17;;;;;;;7.67;7.47;;;7.30;99.90;;;;;;6257884;22;20276;-89
2023/01/12 02:00:58;;;;;;;7.73;7.53;;;7.30;99.90;;;;;;6256493;22;20198;-89
2023/01/12 02:06:22;;;;;;;8.13;7.93;;;7.20;99.90;;;;;;6272184;22;20257;-89
2023/01/12 02:09:07;;;;;;;7.90;7.70;;;7.20;99.90;;;;;;6257768;22;20185;-89
2023/01/12 02:18:09;;;;;;;7.97;7.77;;;7.10;99.90;;;;;;6258969;22;20237;-89
2023/01/12 02:21:08;;;;;;;8.07;7.87;;;7.00;99.90;;;;;;6258706;22;20232;-89
2023/01/12 02:27:51;;;;;;;8.10;7.90;;;7.00;99.90;;;;;;6129866;23;20215;-90
2023/01/12 02:31:16;;;;;;;8.10;7.90;;;6.90;99.90;;;;;;6281072;22;20179;-90
2023/01/12 02:34:09;;;;;;;7.90;7.70;;;6.90;99.90;;;;;;6276387;22;20190;-90
2023/01/12 02:36:59;;;;;;;7.50;7.30;;;6.80;99.90;;;;;;6258491;22;20283;-89
2023/01/12 02:39:40;;;;;;;7.87;7.67;;;6.70;99.90;;;;;;6257681;22;20204;-89
2023/01/12 02:48:35;;;;;;;8.00;7.80;;;6.60;99.90;;;;;;6259220;22;20209;-89
2023/01/12 02:51:20;;;;;;;8.10;7.90;;;6.50;99.90;;;;;;6260748;22;20202;-89
2023/01/12 02:54:09;;;;;;;7.93;7.73;;;6.40;99.90;;;;;;6258305;22;20284;-89
2023/01/12 02:56:45;;;;;;;8.00;7.80;;;6.40;99.90;;;;;;6258248;22;20198;-89
2023/01/12 02:59:19;;;;;;;7.60;7.40;;;6.40;99.90;;;;;;6270499;22;20189;-89
2023/01/12 03:02:11;;;;;;;7.73;7.53;;;6.40;99.90;;;;;;6282515;22;20213;-90
2023/01/12 03:04:45;;;;;;;7.80;7.60;;;6.30;99.90;;;;;;6280220;22;20242;-89
2023/01/12 03:07:56;;;;;;;8.10;7.90;;;6.30;99.90;;;;;;6258609;22;20196;-89
2023/01/12 03:11:15;;;;;;;7.90;7.70;;;6.20;99.90;;;;;;6257017;22;20222;-89
2023/01/12 03:13:57;;;;;;;7.83;7.63;;;6.20;99.90;;;;;;6207359;22;20213;-89
2023/01/12 03:16:34;;;;;;;8.20;8.00;;;6.10;99.90;;;;;;6257796;22;20200;-89
2023/01/12 03:19:11;;;;;;;8.10;7.90;;;6.10;99.90;;;;;;6257948;22;20198;-89
2023/01/12 03:24:54;;;;;;;7.97;7.77;;;5.90;99.90;;;;;;6274259;22;20170;-89
2023/01/12 03:27:31;;;;;;;7.93;7.73;;;5.90;99.90;;;;;;6282424;22;20182;-90
2023/01/12 03:32:56;;;;;;;7.87;7.67;;;5.90;99.90;;;;;;6281054;22;20186;-90
2023/01/12 03:35:39;;;;;;;7.53;7.33;;;5.80;99.90;;;;;;6281969;22;20174;-90
2023/01/12 03:38:26;;;;;;;7.60;7.40;;;5.80;99.90;;;;;;6281591;22;20175;-90
2023/01/12 03:41:37;;;;;;;7.67;7.47;;;5.80;99.90;;;;;;6281299;22;20192;-90
2023/01/12 03:44:19;;;;;;;7.77;7.57;;;5.70;99.90;;;;;;6268505;22;20201;-89
2023/01/12 03:49:59;;;;;;;8.00;7.80;;;5.70;99.90;;;;;;6256904;22;20199;-89
2023/01/12 03:52:46;;;;;;;7.60;7.40;;;5.70;99.90;;;;;;6257004;22;20195;-89
2023/01/12 03:55:33;;;;;;;7.70;7.50;;;5.60;99.90;;;;;;6256973;22;20198;-89
2023/01/12 03:58:33;;;;;;;7.80;7.60;;;5.60;99.90;;;;;;6257023;22;20194;-89
2023/01/12 04:04:28;;;;;;;7.77;7.57;;;5.60;99.90;;;;;;6258034;22;20217;-89
2023/01/12 04:07:04;;;;;;;7.63;7.43;;;5.60;99.90;;;;;;6258668;22;20202;-89
2023/01/12 04:09:47;;;;;;;7.57;7.37;;;5.60;99.90;;;;;;6257256;22;20198;-89
2023/01/12 04:15:31;;;;;;;7.60;7.40;;;5.60;99.90;;;;;;6257922;22;20241;-89
2023/01/12 04:23:59;;;;;;;7.33;7.13;;;5.50;99.90;;;;;;6281131;22;20194;-90
2023/01/12 04:26:44;;;;;;;7.50;7.30;;;5.50;99.90;;;;;;6232175;22;20272;-89
2023/01/12 04:32:26;;;;;;;7.70;7.50;;;5.40;99.90;;;;;;6258280;22;20202;-89
2023/01/12 04:35:04;;;;;;;7.47;7.27;;;5.40;99.90;;;;;;6273218;22;20178;-90
2023/01/12 04:37:43;;;;;;;7.50;7.30;;;5.40;99.90;;;;;;6281816;22;20190;-89
2023/01/12 04:43:06;;;;;;;7.40;7.20;;;5.40;99.90;;;;;;6258831;22;20209;-89
2023/01/12 04:45:46;;;;;;;7.53;7.33;;;5.30;99.90;;;;;;6257092;22;20297;-89
2023/01/12 04:48:59;;;;;;;7.60;7.40;;;5.30;99.90;;;;;;6256560;22;20283;-89
2023/01/12 04:51:40;;;;;;;7.57;7.37;;;5.30;99.90;;;;;;6253404;22;20281;-89
2023/01/12 04:54:19;;;;;;;7.70;7.50;;;5.30;99.90;;;;;;6256326;22;20232;-89
2023/01/12 04:56:48;;;;;;;7.80;7.60;;;5.40;99.90;;;;;;6256153;22;20284;-89
2023/01/12 04:59:26;;;;;;;7.80;7.60;;;5.40;99.90;;;;;;6257366;22;20198;-89
2023/01/12 05:13:47;;;;;;;7.70;7.50;;;5.40;99.90;;;;;;6253776;22;20209;-89
2023/01/12 05:16:27;;;;;;;7.70;7.50;;;5.50;99.90;;;;;;6256406;22;20202;-89
2023/01/12 05:22:08;;;;;;;7.83;7.63;;;5.50;99.90;;;;;;6255160;22;20200;-89
2023/01/12 05:24:56;;;;;;;7.70;7.50;;;5.60;99.90;;;;;;6256354;22;20194;-89
2023/01/12 05:27:24;;;;;;;7.70;7.50;;;5.60;99.90;;;;;;6255995;22;20232;-79
2023/01/12 05:29:52;;;;;;;7.80;7.60;;;5.60;99.90;;;;;;6264002;22;20241;-80
2023/01/12 05:32:19;;;;;;;7.60;7.40;;;5.60;99.90;;;;;;6263163;22;20275;-79
2023/01/12 05:34:47;;;;;;;7.80;7.60;;;5.60;99.90;;;;;;6263036;22;20198;-82
2023/01/12 05:37:16;;;;;;;7.70;7.50;;;5.70;99.90;;;;;;6264140;22;20278;-82
2023/01/12 05:39:44;;;;;;;7.70;7.50;;;5.70;99.90;;;;;;6264352;22;20186;-82
2023/01/12 05:44:56;;;;;;;7.63;7.43;;;5.70;99.90;;;;;;6264983;22;20237;-81
2023/01/12 05:47:24;;;;;;;7.60;7.40;;;5.70;99.90;;;;;;6266020;22;20222;-81
2023/01/12 05:49:52;;;;;;;7.50;7.30;;;5.70;99.90;;;;;;6264293;22;20205;-80
2023/01/12 05:52:21;;;;;;;7.10;6.90;;;5.80;99.90;;;;;;6264469;22;20206;-81
2023/01/12 05:54:48;;;;;;;7.40;7.20;;;5.80;99.90;;;;;;6264234;22;20202;-80
2023/01/12 05:57:16;;;;;;;7.57;7.37;;;5.80;99.90;;;;;;6262813;22;20202;-81
2023/01/12 05:59:44;;;;;;;7.60;7.40;;;5.80;99.90;;;;;;6261409;22;20245;-80
2023/01/12 06:02:15;;;;;;;7.60;7.40;;;5.90;99.90;;;;;;6260009;22;20225;-81
2023/01/12 06:04:44;;;;;;;7.80;7.60;;;5.90;99.90;;;;;;6260885;22;20197;-80
2023/01/12 06:07:13;;;;;;;7.73;7.53;;;5.90;99.90;;;;;;6261784;22;20322;-81
2023/01/12 06:09:42;;;;;;;7.70;7.50;;;5.90;99.90;;;;;;6264541;22;20202;-80
2023/01/12 06:14:56;;;;;;;7.93;7.73;;;5.90;99.90;;;;;;6281783;22;20253;-80
2023/01/12 06:17:24;;;;;;;7.87;7.67;;;5.90;99.90;;;;;;6281030;22;20215;-80
2023/01/12 06:19:52;;;;;;;8.27;8.07;;;5.90;99.90;;;;;;6281367;22;20178;-80
2023/01/12 06:22:19;;;;;;;8.17;7.97;;;5.90;99.90;;;;;;6280295;22;20225;-80
2023/01/12 06:24:49;;;;;;;8.13;7.93;;;5.90;99.90;;;;;;6280050;22;20242;-81
2023/01/12 06:27:17;;;;;;;8.07;7.87;;;5.90;99.90;;;;;;6279658;22;20198;-80
2023/01/12 06:29:45;;;;;;;8.20;8.00;;;6.00;99.90;;;;;;6279880;22;20198;-80
2023/01/12 06:32:13;;;;;;;7.97;7.77;;;6.00;99.90;;;;;;6278460;22;20213;-80
2023/01/12 06:34:40;;;;;;;7.60;7.40;;;6.00;99.90;;;;;;6279270;22;20193;-80
2023/01/12 06:37:10;;;;;;;8.10;7.90;;;6.00;99.90;;;;;;6276564;22;20195;-80
2023/01/12 06:39:38;;;;;;;7.90;7.70;;;6.10;99.90;;;;;;6271243;22;20191;-80
2023/01/12 06:44:52;;;;;;;7.70;7.50;;;6.10;99.90;;;;;;6276662;22;20167;-80
2023/01/12 06:47:20;;;;;;;8.20;8.00;;;6.20;99.90;;;;;;6265329;22;20213;-80
2023/01/12 06:49:50;;;;;;;7.90;7.70;;;6.20;99.90;;;;;;6263843;22;20191;-81
2023/01/12 06:52:19;;;;;;;8.10;7.90;;;6.20;99.90;;;;;;6261364;22;20201;-81
2023/01/12 06:54:47;;;;;;;8.20;8.00;;;6.20;99.90;;;;;;6260565;22;20198;-81
2023/01/12 06:57:16;;;;;;;8.83;8.63;;;6.20;99.90;;;;;;6262291;22;20265;-81
2023/01/12 06:59:43;;;;;;;8.73;8.53;;;6.20;99.90;;;;;;6261692;22;20242;-80
2023/01/12 07:02:14;;;;;;;8.73;8.53;;;6.30;99.90;;;;;;6261095;22;20194;-80
2023/01/12 07:04:42;;;;;;;8.50;8.30;;;6.40;99.90;;;;;;6261541;22;20191;-80
2023/01/12 07:07:11;;;;;;;8.83;8.63;;;6.40;99.90;;;;;;6263204;22;20210;-81
2023/01/12 07:09:39;;;;;;;8.80;8.60;;;6.40;99.90;;;;;;6264352;22;20233;-80
2023/01/12 07:12:07;;;;;;;8.70;8.50;;;6.50;99.90;;;;;;6261922;22;20190;-81
2023/01/12 07:14:36;;;;;;;9.17;8.87;;;6.50;99.90;;;;;;6263672;22;20215;-80
2023/01/12 07:17:04;;;;;;;8.87;8.67;;;6.50;99.90;;;;;;6263659;22;20190;-80
2023/01/12 07:19:31;;;;;;;9.10;8.80;;;6.50;99.90;;;;;;6264120;22;20194;-81
2023/01/12 07:21:59;;;;;;;8.90;8.70;;;6.50;99.90;;;;;;6264997;22;20202;-81
2023/01/12 07:24:28;;;;;;;9.27;8.97;;;6.50;99.90;;;;;;6265388;22;20197;-80
2023/01/12 07:26:58;;;;;;;8.90;8.70;;;6.50;99.90;;;;;;6265538;22;20249;-81
2023/01/12 07:29:26;;;;;;;8.90;8.70;;;6.50;99.90;;;;;;6266234;22;20282;-80
2023/01/12 07:31:55;;;;;;;9.30;9.00;;;6.50;99.90;;;;;;6265750;22;20191;-81
2023/01/12 07:34:22;;;;;;;8.63;8.43;;;6.50;99.90;;;;;;6265886;22;20215;-80
2023/01/12 07:36:51;;;;;;;8.77;8.57;;;6.50;99.90;;;;;;6265959;22;20194;-80
2023/01/12 07:39:19;;;;;;;8.73;8.53;;;6.60;99.90;;;;;;6265898;22;20251;-81
2023/01/12 07:44:31;;;;;;;8.60;8.40;;;6.60;99.90;;;;;;6265732;22;20178;-80
2023/01/12 07:47:00;;;;;;;8.90;8.70;;;6.60;99.90;;;;;;6266278;22;20289;-80
2023/01/12 07:49:28;;;;;;;8.80;8.60;;;6.70;99.90;;;;;;6267050;22;20229;-81
2023/01/12 07:51:56;;;;;;;8.80;8.60;;;6.80;99.90;;;;;;6265918;22;20194;-81
2023/01/12 07:54:24;;;;;;;9.00;8.80;;;6.80;99.90;;;;;;6267653;22;20253;-81
2023/01/12 07:56:52;;;;;;;8.80;8.60;;;6.80;99.90;;;;;;6266735;22;20197;-81
2023/01/12 07:59:19;;;;;;;8.90;8.70;;;6.90;99.90;;;;;;6265641;22;20190;-81
2023/01/12 08:01:47;;;;;;;8.70;8.50;;;6.90;99.90;;;;;;6265293;22;20210;-81
2023/01/12 08:04:17;;;;;;;9.00;8.80;;;6.90;99.90;;;;;;6265582;22;20233;-81
2023/01/12 08:06:44;;;;;;;8.80;8.60;;;7.00;99.90;;;;;;6266543;22;20194;-81
2023/01/12 08:09:12;;;;;;;8.77;8.57;;;7.00;99.90;;;;;;6267033;22;20194;-81
2023/01/12 08:11:40;;;;;;;9.10;8.80;;;7.00;99.90;;;;;;6267709;22;20249;-81
2023/01/12 08:14:07;;;;;;;9.10;8.80;;;7.00;99.90;;;;;;6268411;22;20247;-81
2023/01/12 08:16:40;;;;;;;9.40;9.10;;;7.10;99.90;;;;;;6266528;22;20379;-82
2023/01/12 08:19:14;;;;;;;9.40;9.10;;;7.20;99.90;;;;;;6267526;22;20221;-83
2023/01/12 08:21:50;;;;;;;9.20;8.90;;;7.30;99.90;;;;;;6274234;22;20194;-83
2023/01/12 08:24:22;;;;;;;9.50;9.20;;;7.40;99.90;;;;;;6274143;22;20213;-81
2023/01/12 08:26:54;;;;;;;9.27;8.97;;;7.50;99.90;;;;;;6273898;22;20209;-83
2023/01/12 08:29:29;;;;;;;9.63;9.33;;;7.60;99.90;;;;;;6276244;22;20213;-82
2023/01/12 08:31:58;;;;;;;9.57;9.27;;;7.70;99.90;;;;;;6273204;22;20177;-82
2023/01/12 08:34:27;;;;;;;9.57;9.27;;;7.80;99.90;;;;;;6277892;22;20225;-83
2023/01/12 08:36:57;;;;;;;9.30;9.00;;;8.00;99.90;;;;;;6276933;22;20213;-78
2023/01/12 08:39:25;;;;;;;9.10;8.80;;;8.00;99.90;;;;;;6276535;22;20198;-79
2023/01/12 08:41:52;;;;;;;9.40;9.10;;;8.10;99.90;;;;;;6269304;22;20194;-81
2023/01/12 08:44:20;;;;;;;9.30;9.00;;;8.20;99.90;;;;;;6270857;22;20225;-83
2023/01/12 08:46:50;;;;;;;9.40;9.10;;;8.20;99.90;;;;;;6265795;22;20214;-80
2023/01/12 08:49:21;;;;;;;9.63;9.33;;;8.30;99.90;;;;;;6265882;22;20212;-80
2023/01/12 08:51:49;;;;;;;9.60;9.30;;;8.30;99.90;;;;;;6263746;22;20194;-80
2023/01/12 08:54:20;;;;;;;9.57;9.27;;;8.30;99.90;;;;;;6265057;22;20205;-82
2023/01/12 08:56:49;;;;;;;9.70;9.40;;;8.40;99.90;;;;;;6264077;22;20202;-83
2023/01/12 08:59:18;;;;;;;9.50;9.20;;;8.40;99.90;;;;;;6264633;22;20221;-81
2023/01/12 09:01:45;;;;;;;9.70;9.40;;;8.50;99.90;;;;;;6265778;22;20249;-81
2023/01/12 09:04:13;;;;;;;9.40;9.10;;;8.40;99.90;;;;;;6265243;22;20208;-82
2023/01/12 09:06:43;;;;;;;9.40;9.10;;;8.40;99.90;;;;;;6264249;22;20199;-81
2023/01/12 09:09:13;;;;;;;9.50;9.20;;;8.50;99.90;;;;;;6263244;22;20201;-82
2023/01/12 09:11:43;;;;;;;9.50;9.20;;;8.50;99.90;;;;;;6264881;22;20202;-82
2023/01/12 09:14:13;;;;;;;9.50;9.20;;;8.50;99.90;;;;;;6265074;22;20201;-82
2023/01/12 09:16:40;;;;;;;9.70;9.40;;;8.50;99.90;;;;;;6264463;22;20218;-86
2023/01/12 09:19:09;;;;;;;9.50;9.20;;;8.60;99.90;;;;;;6262799;22;20194;-83
2023/01/12 09:21:39;;;;;;;9.47;9.17;;;8.60;99.90;;;;;;6262848;22;20248;-82
2023/01/12 09:24:07;;;;;;;9.47;9.17;;;8.60;99.90;;;;;;6264302;22;20221;-81
2023/01/12 09:26:42;;;;;;;9.40;9.10;;;8.60;99.90;;;;;;6264150;22;20206;-81
2023/01/12 09:29:11;;;;;;;9.40;9.10;;;8.60;99.90;;;;;;6264327;22;20209;-82
2023/01/12 09:31:41;;;;;;;9.40;9.10;;;8.70;99.90;;;;;;6264066;22;20194;-81
2023/01/12 09:34:08;;;;;;;9.10;8.80;;;8.80;99.90;;;;;;6263618;22;20198;-81
2023/01/12 09:36:40;;;;;;;9.20;8.90;;;8.80;99.90;;;;;;6260486;22;20197;-79
2023/01/12 09:39:09;;;;;;;9.63;9.33;;;8.80;99.90;;;;;;6264373;22;20197;-81
2023/01/12 09:47:23;;;;;;;9.20;8.90;;;8.90;99.90;;;;;;6261049;22;20194;-81
2023/01/12 09:49:55;;;;;;;9.20;8.90;;;8.90;99.90;;;;;;6260194;22;20991;-80
2023/01/12 09:52:27;;;;;;;9.30;9.00;;;8.90;99.90;;;;;;6260192;22;20186;-81
2023/01/12 09:54:54;;;;;;;9.13;8.83;;;9.00;99.90;;;;;;6273335;22;20194;-80
2023/01/12 09:58:11;;;;;;;9.40;9.10;;;8.90;99.90;;;;;;6277198;22;20209;-80
2023/01/12 10:00:45;;;;;;;9.20;8.90;;;8.90;99.90;;;;;;6256412;22;20194;-84
2023/01/12 10:03:19;;;;;;;9.20;8.90;;;8.80;99.90;;;;;;6260876;22;20194;-83
2023/01/12 10:05:51;;;;;;;8.83;8.63;;;8.80;99.90;;;;;;6258897;22;20225;-84
2023/01/12 10:08:30;;;;;;;9.37;9.07;;;8.80;99.90;;;;;;6260606;22;20198;-83
2023/01/12 10:11:16;;;;;;;9.30;9.00;;;8.80;99.90;;;;;;6260962;22;20216;-82
2023/01/12 10:14:26;;;;;;;9.47;9.17;;;8.70;99.90;;;;;;6261087;22;20198;-82
2023/01/12 10:17:17;;;;;;;9.37;9.07;;;8.60;99.90;;;;;;6234656;22;20236;-82
2023/01/12 10:19:53;;;;;;;9.23;8.93;;;8.50;99.90;;;;;;6260893;22;20198;-81
2023/01/12 10:22:38;;;;;;;9.47;9.17;;;8.40;99.90;;;;;;6261291;22;20259;-81
2023/01/12 10:25:24;;;;;;;9.40;9.10;;;8.30;99.90;;;;;;6260566;22;20186;-81
2023/01/12 10:27:55;;;;;;;9.43;9.13;;;8.30;99.90;;;;;;6259959;22;20209;-80
2023/01/12 10:30:30;;;;;;;9.40;9.10;;;8.30;99.90;;;;;;6259945;22;20197;-81
2023/01/12 10:33:10;;;;;;;9.40;9.10;;;8.30;99.90;;;;;;6261794;22;20190;-81
2023/01/12 10:35:53;;;;;;;9.30;9.00;;;8.30;99.90;;;;;;6261937;22;20217;-81
2023/01/12 10:38:25;;;;;;;9.33;9.03;;;8.40;99.90;;;;;;6262635;22;20194;-82
2023/01/12 10:41:16;;;;;;;9.30;9.00;;;8.40;99.90;;;;;;6260848;22;20205;-82
2023/01/12 10:43:46;;;;;;;9.17;8.90;;;8.40;99.90;;;;;;6262027;22;20665;-82
2023/01/12 10:46:17;;;;;;;9.20;8.90;;;8.50;99.90;;;;;;6259955;22;20221;-83
2023/01/12 10:48:48;;;;;;;9.50;9.20;;;8.40;99.90;;;;;;6260931;22;20194;-83
2023/01/12 10:51:26;;;;;;;8.90;8.70;;;8.50;99.90;;;;;;6264772;22;20187;-84
2023/01/12 10:53:58;;;;;;;9.47;9.17;;;8.50;99.90;;;;;;6261776;22;20259;-82
2023/01/12 10:56:34;;;;;;;9.27;8.97;;;8.60;99.90;;;;;;6261330;22;20230;-82
2023/01/12 10:59:05;;;;;;;9.47;9.17;;;8.60;99.90;;;;;;6264618;22;20212;-82
2023/01/12 11:01:51;;;;;;;9.90;9.60;;;8.70;99.90;;;;;;6261376;22;20243;-82
2023/01/12 11:04:26;;;;;;;9.43;9.13;;;8.70;99.90;;;;;;6261862;22;20201;-83
2023/01/12 11:07:02;;;;;;;9.63;9.33;;;8.70;99.90;;;;;;6261253;22;20264;-82
2023/01/12 11:09:31;;;;;;;9.50;9.20;;;8.80;99.90;;;;;;6260695;22;20190;-82
2023/01/12 11:12:07;;;;;;;9.70;9.40;;;8.90;99.90;;;;;;6260843;22;20199;-82
2023/01/12 11:14:37;;;;;;;9.50;9.20;;;9.00;99.90;;;;;;6261435;22;20262;-81
2023/01/12 11:17:32;;;;;;;9.60;9.30;;;9.00;99.90;;;;;;6260650;22;20237;-82
2023/01/12 11:20:07;;;;;;;9.50;9.20;;;9.10;99.90;;;;;;6261562;22;20197;-82
2023/01/12 11:22:37;;;;;;;9.27;8.97;;;9.20;99.90;;;;;;6277844;22;20177;-81
2023/01/12 11:25:10;;;;;;;9.33;9.03;;;9.20;99.90;;;;;;6261370;22;20194;-81
2023/01/12 11:27:44;;;;;;;9.30;9.00;;;9.30;99.90;;;;;;6256676;22;20249;-83
2023/01/12 11:45:24;;;;;;;8.80;8.60;;;9.40;99.90;;;;;;5930585;24;20197;-88
2023/01/12 12:06:20;;;;;;;9.33;9.03;;;9.40;99.90;;;;;;6192794;23;20203;-88
2023/01/12 12:15:27;;;;;;;9.27;8.97;;;9.40;99.90;;;;;;6227313;23;20195;-87
2023/01/12 12:18:21;;;;;;;9.40;9.10;;;9.50;99.90;;;;;;6227781;22;20194;-87
2023/01/12 12:21:29;;;;;;;9.90;9.60;;;9.50;99.90;;;;;;6228183;23;20199;-86
2023/01/12 12:24:12;;;;;;;9.40;9.10;;;9.60;99.90;;;;;;6230189;23;20736;-85
2023/01/12 12:27:18;;;;;;;9.70;9.40;;;9.60;99.90;;;;;;6229108;22;20222;-85
2023/01/12 12:30:39;;;;;;;9.87;9.57;;;9.60;99.90;;;;;;6173615;23;20199;-85
2023/01/12 12:36:54;;;;;;;9.50;9.20;;;9.70;99.90;;;;;;6229248;22;20211;-86
2023/01/12 12:45:15;;;;;;;9.37;9.07;;;9.70;99.90;;;;;;6229237;23;20210;-86
2023/01/12 13:54:16;;;;;;;8.77;8.57;;;9.80;99.90;;;;;;6259544;22;20239;-90
2023/01/12 14:31:38;;;;;;;;;;;;;;;;;;;;;
2023/01/12 16:09:51;;;;;;;8.40;8.20;;;9.90;99.90;;;;;;5908263;24;20205;-83
2023/01/12 17:22:44;;;;;;;8.53;8.33;;;9.90;99.90;;;;;;6195292;23;20283;-87
2023/01/12 17:26:37;;;;;;;;;;;;;;;;;;;;;
2023/01/12 17:29:05;;;;;;;8.37;8.17;;;9.90;99.90;;;;;;6117069;22;20375;-86
2023/01/12 17:31:33;;;;;;;8.67;8.47;;;9.90;99.90;;;;;;6228401;23;20207;-86
2023/01/12 17:34:01;;;;;;;8.60;8.40;;;9.90;99.90;;;;;;6228892;23;20207;-83
2023/01/12 17:36:47;;;;;;;8.70;8.50;;;9.80;99.90;;;;;;6229226;23;20221;-83
2023/01/12 17:39:16;;;;;;;8.50;8.30;;;9.90;99.90;;;;;;6227685;22;20227;-82
2023/01/12 17:44:30;;;;;;;8.60;8.40;;;9.80;99.90;;;;;;6229988;23;20179;-83
2023/01/12 17:55:05;;;;;;;8.47;8.27;;;9.80;99.90;;;;;;6229190;23;20201;-83
2023/01/12 17:57:34;;;;;;;8.23;8.03;;;9.80;99.90;;;;;;6233654;23;20202;-84
2023/01/12 18:00:04;;;;;;;8.40;8.20;;;9.80;99.90;;;;;;6234298;22;20203;-83
2023/01/12 18:02:31;;;;;;;8.00;7.80;;;9.90;99.90;;;;;;6234643;23;20270;-83
2023/01/12 18:04:59;;;;;;;8.03;7.83;;;9.80;99.90;;;;;;6230946;23;20194;-83
2023/01/12 18:07:30;;;;;;;7.77;7.57;;;9.80;99.90;;;;;;6229006;23;20278;-82
2023/01/12 18:09:58;;;;;;;8.10;7.90;;;9.90;99.90;;;;;;6227716;22;20199;-83
2023/01/12 18:12:26;;;;;;;7.90;7.70;;;9.90;99.90;;;;;;6232248;23;20246;-82
2023/01/12 18:14:55;;;;;;;8.30;8.10;;;9.80;99.90;;;;;;6231828;23;20202;-83
2023/01/12 18:17:23;;;;;;;7.90;7.70;;;9.80;99.90;;;;;;6229663;23;20202;-84
2023/01/12 18:19:51;;;;;;;8.30;8.10;;;9.80;99.90;;;;;;6232508;22;20209;-82
2023/01/12 18:22:19;;;;;;;8.20;8.00;;;9.80;99.90;;;;;;6229879;23;20250;-84
2023/01/12 18:24:48;;;;;;;8.20;8.00;;;9.80;99.90;;;;;;6228737;23;20244;-83
2023/01/12 18:27:18;;;;;;;8.10;7.90;;;9.90;99.90;;;;;;6229465;23;20203;-83
2023/01/12 18:29:45;;;;;;;8.10;7.90;;;9.80;99.90;;;;;;6227929;22;20198;-83
2023/01/12 18:32:13;;;;;;;7.97;7.77;;;9.80;99.90;;;;;;6228973;23;20213;-83
2023/01/12 18:34:43;;;;;;;8.10;7.90;;;9.80;99.90;;;;;;6229125;23;20195;-82
2023/01/12 18:37:10;;;;;;;7.97;7.77;;;9.80;99.90;;;;;;6230869;23;20202;-83
2023/01/12 18:39:40;;;;;;;8.27;8.07;;;9.80;99.90;;;;;;6227327;22;20199;-83
2023/01/12 18:45:02;;;;;;;8.10;7.90;;;9.80;99.90;;;;;;6232843;23;20184;-83
2023/01/12 18:55:50;;;;;;;7.90;7.70;;;9.80;99.90;;;;;;6230405;23;20187;-81
2023/01/12 18:58:19;;;;;;;8.20;8.00;;;9.80;99.90;;;;;;6230223;23;20203;-81
2023/01/12 19:00:47;;;;;;;8.00;7.80;;;9.80;99.90;;;;;;6229545;23;20195;-81
2023/01/12 19:03:14;;;;;;;8.00;7.80;;;9.80;99.90;;;;;;6229719;23;20195;-82
2023/01/12 19:05:53;;;;;;;8.00;7.80;;;9.90;99.90;;;;;;6228693;23;20198;-82
2023/01/12 19:11:11;;;;;;;8.10;7.90;;;9.90;99.90;;;;;;6247719;22;20179;-80
2023/01/12 19:19:11;;;;;;;8.00;7.80;;;9.90;99.90;;;;;;6228285;22;20199;-82
2023/01/12 19:29:59;;;;;;;7.90;7.70;;;10.00;99.90;;;;;;6246097;22;20187;-83
2023/01/12 19:32:27;;;;;;;8.10;7.90;;;10.00;99.90;;;;;;6244717;23;20239;-83
2023/01/12 19:34:55;;;;;;;8.10;7.90;;;9.90;99.90;;;;;;6238313;23;20242;-82
2023/01/12 19:37:22;;;;;;;8.10;7.90;;;9.90;99.90;;;;;;6232094;23;20202;-84
2023/01/12 19:39:58;;;;;;;8.40;8.20;;;9.90;99.90;;;;;;6232776;22;20203;-82
2023/01/12 19:45:13;;;;;;;8.07;7.87;;;9.90;99.90;;;;;;6232308;23;20206;-83
2023/01/12 19:47:41;;;;;;;8.30;8.10;;;9.90;99.90;;;;;;6232988;23;20253;-82
2023/01/12 19:50:12;;;;;;;8.33;8.13;;;9.90;99.90;;;;;;6233398;22;20203;-85
2023/01/12 19:52:43;;;;;;;8.27;8.07;;;9.90;99.90;;;;;;6231678;23;20195;-85
2023/01/12 19:55:14;;;;;;;8.57;8.37;;;9.90;99.90;;;;;;6233602;23;20186;-84
2023/01/12 19:57:43;;;;;;;8.20;8.00;;;9.90;99.90;;;;;;6231373;23;20242;-84
2023/01/12 20:00:16;;;;;;;8.40;8.20;;;9.80;99.90;;;;;;6231143;22;20209;-86
2023/01/12 20:02:44;;;;;;;8.20;8.00;;;9.80;99.90;;;;;;6232942;23;20201;-82
2023/01/12 20:05:20;;;;;;;8.50;8.30;;;9.80;99.90;;;;;;6231896;23;20211;-83
2023/01/12 20:07:49;;;;;;;8.20;8.00;;;9.80;99.90;;;;;;6232039;23;20220;-83
2023/01/12 20:10:17;;;;;;;8.23;8.03;;;9.80;99.90;;;;;;6233194;22;20635;-85
2023/01/12 20:12:44;;;;;;;8.27;8.07;;;9.70;99.90;;;;;;6233502;23;20253;-83
2023/01/12 20:15:17;;;;;;;8.10;7.90;;;9.70;99.90;;;;;;6233350;23;20211;-82
2023/01/12 20:17:44;;;;;;;8.37;8.17;;;9.70;99.90;;;;;;6242582;23;20206;-82
2023/01/12 20:20:13;;;;;;;8.30;8.10;;;9.70;99.90;;;;;;6235094;22;20202;-79
2023/01/12 20:22:41;;;;;;;8.47;8.27;;;9.80;99.90;;;;;;6241235;23;20213;-82
2023/01/12 20:25:10;;;;;;;8.30;8.10;;;9.80;99.90;;;;;;6248215;22;20197;-82
2023/01/12 20:27:39;;;;;;;8.47;8.27;;;9.80;99.90;;;;;;6248677;22;20191;-83
2023/01/12 20:30:13;;;;;;;8.30;8.10;;;9.80;99.90;;;;;;6249010;22;20190;-81
2023/01/12 20:32:43;;;;;;;8.27;8.07;;;9.80;99.90;;;;;;6248811;22;20179;-81
2023/01/12 20:35:14;;;;;;;8.27;8.07;;;9.80;99.90;;;;;;6249608;22;20171;-81
2023/01/12 20:37:43;;;;;;;8.80;8.60;;;9.80;99.90;;;;;;6248735;22;20202;-80
2023/01/12 20:40:12;;;;;;;8.43;8.23;;;9.80;99.90;;;;;;6247967;22;20444;-79
2023/01/12 20:42:40;;;;;;;8.90;8.70;;;9.80;99.90;;;;;;6248587;22;20246;-81
2023/01/12 20:45:10;;;;;;;8.53;8.33;;;9.80;99.90;;;;;;6248594;22;20193;-80
2023/01/12 20:47:38;;;;;;;8.67;8.47;;;9.80;99.90;;;;;;6248345;22;20171;-79
2023/01/12 20:50:10;;;;;;;8.77;8.57;;;9.80;99.90;;;;;;6249211;22;20187;-82
2023/01/12 20:52:38;;;;;;;8.57;8.37;;;9.80;99.90;;;;;;6248515;23;20210;-80
2023/01/12 20:55:07;;;;;;;8.50;8.30;;;9.80;99.90;;;;;;6247712;22;20183;-81
2023/01/12 20:57:37;;;;;;;8.63;8.43;;;9.80;99.90;;;;;;6233084;23;20241;-82
2023/01/12 21:00:07;;;;;;;8.73;8.53;;;9.80;99.90;;;;;;6233427;22;20225;-82
2023/01/12 21:02:35;;;;;;;8.70;8.50;;;9.80;99.90;;;;;;6234797;23;20187;-82
2023/01/12 21:05:03;;;;;;;8.43;8.23;;;9.80;99.90;;;;;;6233670;23;20195;-82
2023/01/12 21:07:32;;;;;;;8.63;8.43;;;9.80;99.90;;;;;;6232858;23;20210;-82
2023/01/12 21:10:02;;;;;;;8.80;8.60;;;9.90;99.90;;;;;;6231639;22;20683;-82
2023/01/12 21:12:30;;;;;;;9.00;8.80;;;9.80;99.90;;;;;;6233559;23;20199;-82
2023/01/12 21:14:57;;;;;;;8.73;8.53;;;9.80;99.90;;;;;;6243065;23;20195;-81
2023/01/12 21:17:25;;;;;;;8.77;8.57;;;9.80;99.90;;;;;;6236215;23;20230;-80
2023/01/12 21:19:52;;;;;;;8.80;8.60;;;9.80;99.90;;;;;;6234812;22;20210;-81
2023/01/12 21:22:20;;;;;;;8.87;8.67;;;9.80;99.90;;;;;;6233945;23;20267;-81
2023/01/12 21:24:49;;;;;;;8.80;8.60;;;9.70;99.90;;;;;;6233789;23;20195;-83
2023/01/12 21:27:17;;;;;;;9.00;8.80;;;9.70;99.90;;;;;;6232125;23;20226;-85
2023/01/12 21:29:44;;;;;;;8.90;8.70;;;9.70;99.90;;;;;;6230933;22;20202;-84
2023/01/12 21:32:12;;;;;;;8.90;8.70;;;9.70;99.90;;;;;;6231971;23;20272;-81
2023/01/12 21:34:40;;;;;;;9.00;8.80;;;9.60;99.90;;;;;;6232623;23;20191;-83
2023/01/12 21:37:07;;;;;;;8.90;8.70;;;9.60;99.90;;;;;;6232674;23;20218;-82
2023/01/12 21:39:35;;;;;;;8.90;8.70;;;9.70;99.90;;;;;;6232844;22;20207;-82
2023/01/12 21:44:49;;;;;;;8.90;8.70;;;9.70;99.90;;;;;;6233754;23;20262;-82
2023/01/12 21:47:17;;;;;;;8.93;8.73;;;9.70;99.90;;;;;;6233063;23;20195;-82
2023/01/12 21:49:44;;;;;;;9.07;8.87;;;9.60;99.90;;;;;;6233381;22;20199;-82
2023/01/12 21:52:12;;;;;;;8.63;8.43;;;9.70;99.90;;;;;;6232591;23;20226;-82